createdAt,value
2019-03-31T00:02:07.994Z,3.47
2019-03-31T00:07:07.822Z,3.44
2019-03-31T00:11:07.248Z,3.18
2019-03-31T00:16:07.646Z,2.86
2019-03-31T00:17:07.602Z,2.86
2019-03-31T00:21:06.757Z,2.75
2019-03-31T00:26:06.638Z,2.67
2019-03-31T00:31:07.146Z,2.65
2019-03-31T00:36:07.085Z,2.69
2019-03-31T00:41:06.679Z,2.99
2019-03-31T00:46:06.549Z,2.98
2019-03-31T00:50:06.995Z,3.11
2019-03-31T00:55:06.885Z,3.11
2019-03-31T01:00:08.863Z,3.19
2019-03-31T01:05:10.023Z,4.05
2019-03-31T01:10:08.001Z,4.22
2019-03-31T01:15:08.773Z,5.21
2019-03-31T01:20:07.252Z,6.04
2019-03-31T01:25:07.221Z,5.97
2019-03-31T01:29:06.589Z,6.14
2019-03-31T01:34:06.874Z,6.25
2019-03-31T01:39:07.149Z,6.29
2019-03-31T01:44:07.075Z,6.41
2019-03-31T01:49:06.669Z,6.35
2019-03-31T01:54:06.638Z,6.02
2019-03-31T01:59:06.627Z,5.69
2019-03-31T02:04:06.998Z,5.49
2019-03-31T02:08:06.571Z,5.52
2019-03-31T02:13:07.064Z,5.15
2019-03-31T02:18:06.695Z,4.71
2019-03-31T02:23:06.695Z,4.14
2019-03-31T02:28:06.671Z,4
2019-03-31T02:33:06.677Z,4.03
2019-03-31T02:38:06.706Z,4.13
2019-03-31T02:42:07.918Z,4.19
2019-03-31T02:47:07.809Z,3.77
2019-03-31T02:52:07.790Z,3.57
2019-03-31T02:57:07.787Z,3.52
2019-03-31T03:02:06.780Z,3.46
2019-03-31T03:07:06.840Z,3.65
2019-03-31T03:12:06.955Z,3.7
2019-03-31T03:17:06.766Z,3.43
2019-03-31T03:22:06.764Z,3.13
2019-03-31T03:26:07.564Z,3.29
2019-03-31T03:31:17.790Z,3.52
2019-03-31T03:36:07.793Z,3.48
2019-03-31T03:41:07.211Z,3.57
2019-03-31T03:46:06.745Z,4.03
2019-03-31T03:51:07.741Z,4.48
2019-03-31T03:56:06.811Z,4.52
2019-03-31T04:00:09.369Z,4.65
2019-03-31T04:05:06.883Z,4.57
2019-03-31T04:10:07.327Z,4.51
2019-03-31T04:15:07.578Z,4.35
2019-03-31T04:20:07.932Z,4.31
2019-03-31T04:25:08.738Z,4.21
2019-03-31T04:30:08.033Z,4.02
2019-03-31T04:34:07.689Z,3.98
2019-03-31T04:39:07.921Z,4.15
2019-03-31T04:44:07.787Z,4.38
2019-03-31T04:49:07.555Z,4.61
2019-03-31T04:54:07.475Z,4.74
2019-03-31T04:59:07.571Z,4.64
2019-03-31T05:04:06.857Z,4.61
2019-03-31T05:08:07.508Z,4.67
2019-03-31T05:13:08.178Z,4.82
2019-03-31T05:14:06.479Z,4.82
2019-03-31T05:18:07.632Z,4.82
2019-03-31T05:23:07.462Z,4.88
2019-03-31T05:28:07.408Z,4.95
2019-03-31T05:33:08.044Z,5.19
2019-03-31T05:38:07.883Z,5.22
2019-03-31T05:43:07.409Z,5.48
2019-03-31T05:47:07.109Z,5.17
2019-03-31T05:52:07.190Z,5.34
2019-03-31T05:57:07.146Z,5.56
2019-03-31T06:02:06.849Z,5.85
2019-03-31T06:07:06.758Z,6.08
2019-03-31T06:12:07.044Z,6.31
2019-03-31T06:17:06.765Z,6.54
2019-03-31T06:21:08.163Z,6.59
2019-03-31T06:26:08.110Z,6.83
2019-03-31T06:31:07.252Z,6.9
2019-03-31T06:36:08.175Z,7.16
2019-03-31T06:41:07.524Z,7.5
2019-03-31T06:46:07.925Z,8.09
2019-03-31T06:51:07.771Z,8.5
2019-03-31T06:55:07.083Z,8.36
2019-03-31T07:00:10.065Z,8.45
2019-03-31T07:05:07.734Z,8.67
2019-03-31T07:10:07.230Z,8.6
2019-03-31T07:15:09.526Z,8.61
2019-03-31T07:20:07.717Z,8.83
2019-03-31T07:25:07.617Z,8.67
2019-03-31T07:29:06.459Z,8.82
2019-03-31T07:34:06.702Z,8.51
2019-03-31T07:39:07.326Z,8.06
2019-03-31T07:44:06.437Z,8.04
2019-03-31T07:49:06.937Z,8.07
2019-03-31T07:54:06.905Z,7.93
2019-03-31T07:58:06.631Z,7.64
2019-03-31T08:03:08.075Z,7.4
2019-03-31T08:08:07.951Z,7.45
2019-03-31T08:13:07.371Z,7.56
2019-03-31T08:18:07.973Z,7.62
2019-03-31T08:23:07.812Z,7.56
2019-03-31T08:28:07.615Z,7.82
2019-03-31T08:32:07.209Z,8.29
2019-03-31T08:37:07.785Z,8.8
2019-03-31T08:42:06.983Z,9.57
2019-03-31T08:47:07.223Z,9.59
2019-03-31T08:52:07.140Z,10.07
2019-03-31T08:57:07.131Z,10.24
2019-03-31T09:02:07.384Z,10.49
2019-03-31T09:06:07.682Z,10.13
2019-03-31T09:11:08.402Z,10.33
2019-03-31T09:16:07.051Z,10.26
2019-03-31T09:21:06.646Z,10.14
2019-03-31T09:26:06.512Z,10.26
2019-03-31T09:31:06.997Z,10.71
2019-03-31T09:36:15.801Z,11.03
2019-03-31T09:41:07.124Z,10.7
2019-03-31T09:45:08.867Z,10.73
2019-03-31T09:50:06.942Z,10.87
2019-03-31T09:55:06.861Z,10.67
2019-03-31T10:00:08.247Z,10.95
2019-03-31T10:05:06.478Z,10.95
2019-03-31T10:10:06.965Z,11.15
2019-03-31T10:15:07.937Z,11.77
2019-03-31T10:19:06.850Z,11.97
2019-03-31T10:24:06.691Z,11.42
2019-03-31T10:29:06.656Z,11.39
2019-03-31T10:34:07.356Z,11.04
2019-03-31T10:39:07.676Z,11.07
2019-03-31T10:44:07.564Z,11.16
2019-03-31T10:48:22.033Z,10.87
2019-03-31T10:53:07.934Z,12.32
2019-03-31T10:58:07.812Z,11.29
2019-03-31T11:03:07.358Z,11.22
2019-03-31T11:08:07.242Z,11.51
2019-03-31T11:13:06.781Z,11.49
2019-03-31T11:18:07.247Z,11.26
2019-03-31T11:23:07.126Z,10.77
2019-03-31T11:27:08.345Z,10.74
2019-03-31T11:32:07.865Z,10.45
2019-03-31T11:37:14.918Z,10.65
2019-03-31T11:42:08.113Z,10.69
2019-03-31T11:47:07.524Z,10.83
2019-03-31T11:52:07.520Z,11.33
2019-03-31T11:57:07.351Z,11.37
2019-03-31T12:01:07.180Z,10.98
2019-03-31T12:06:11.498Z,10.89
2019-03-31T12:11:07.790Z,10.89
2019-03-31T12:16:08.104Z,11.25
2019-03-31T12:21:08.022Z,11.63
2019-03-31T12:26:07.954Z,11.53
2019-03-31T12:31:06.376Z,11.12
2019-03-31T12:35:07.349Z,11.04
2019-03-31T12:40:06.547Z,10.89
2019-03-31T12:45:09.056Z,10.87
2019-03-31T12:50:06.800Z,10.95
2019-03-31T12:55:07.823Z,11.43
2019-03-31T13:00:08.504Z,11.05
2019-03-31T13:05:07.034Z,11.1
2019-03-31T13:09:07.273Z,11.2
2019-03-31T13:14:07.527Z,11
2019-03-31T13:19:06.620Z,10.89
2019-03-31T13:24:06.891Z,10.71
2019-03-31T13:29:06.550Z,10.53
2019-03-31T13:34:06.596Z,10.67
2019-03-31T13:39:07.657Z,10.74
2019-03-31T13:43:07.669Z,10.42
2019-03-31T13:48:06.507Z,10.23
2019-03-31T13:53:06.822Z,10.33
2019-03-31T13:58:08.421Z,10.35
2019-03-31T14:03:06.627Z,10.71
2019-03-31T14:08:06.982Z,11.07
2019-03-31T14:13:07.213Z,11.23
2019-03-31T14:17:07.557Z,10.75
2019-03-31T14:22:06.488Z,10.51
2019-03-31T14:27:07.285Z,10.4
2019-03-31T14:32:06.680Z,10.31
2019-03-31T14:37:07.424Z,10.46
2019-03-31T14:42:06.865Z,10.49
2019-03-31T14:47:07.708Z,10.63
2019-03-31T14:52:06.713Z,12.13
2019-03-31T14:56:07.464Z,12.5
2019-03-31T15:01:06.847Z,12.28
2019-03-31T15:06:07.128Z,13.21
2019-03-31T15:11:07.203Z,12.94
2019-03-31T15:16:07.065Z,11.67
2019-03-31T15:21:06.806Z,11.09
2019-03-31T15:26:07.298Z,10.96
2019-03-31T15:30:08.336Z,10.97
2019-03-31T15:35:07.215Z,10.97
2019-03-31T15:40:06.738Z,10.74
2019-03-31T15:45:07.830Z,10.68
2019-03-31T15:50:07.379Z,10.46
2019-03-31T15:55:06.340Z,10.37
2019-03-31T16:00:09.590Z,10.3
2019-03-31T16:04:07.162Z,10.21
2019-03-31T16:09:24.500Z,10.35
2019-03-31T16:14:06.487Z,11.22
2019-03-31T16:19:07.530Z,12.26
2019-03-31T16:24:06.507Z,11.85
2019-03-31T16:29:07.804Z,11.31
2019-03-31T16:34:06.474Z,11.31
2019-03-31T16:39:08.724Z,10.79
2019-03-31T16:43:07.658Z,10.35
2019-03-31T16:48:07.107Z,10.07
2019-03-31T16:53:07.556Z,9.88
2019-03-31T16:58:09.402Z,9.64
2019-03-31T17:03:06.542Z,9.42
2019-03-31T17:08:06.444Z,9.15
2019-03-31T17:12:06.501Z,8.95
2019-03-31T17:17:07.584Z,8.82
2019-03-31T17:22:06.646Z,8.67
2019-03-31T17:27:06.674Z,8.67
2019-03-31T17:32:07.231Z,8.46
2019-03-31T17:37:07.195Z,8.32
2019-03-31T17:42:06.431Z,8.22
2019-03-31T17:47:07.048Z,8.07
2019-03-31T17:52:08.799Z,8.01
2019-03-31T17:56:07.604Z,7.85
2019-03-31T18:01:08.305Z,7.57
2019-03-31T18:06:06.419Z,7.33
2019-03-31T18:11:06.766Z,7.28
2019-03-31T18:16:07.589Z,7.24
2019-03-31T18:21:06.608Z,7.1
2019-03-31T18:25:06.418Z,6.87
2019-03-31T18:30:07.530Z,6.82
2019-03-31T18:35:07.164Z,6.93
2019-03-31T18:40:06.626Z,6.75
2019-03-31T18:45:07.827Z,6.33
2019-03-31T18:50:07.121Z,6.15
2019-03-31T18:55:07.016Z,5.99
2019-03-31T18:59:08.203Z,6.17
2019-03-31T19:04:07.132Z,5.99
2019-03-31T19:09:07.458Z,5.62
2019-03-31T19:14:06.979Z,5.63
2019-03-31T19:19:06.666Z,5.7
2019-03-31T19:24:06.590Z,5.72
2019-03-31T19:29:06.789Z,5.64
2019-03-31T19:33:07.381Z,5.74
2019-03-31T19:38:07.341Z,5.85
2019-03-31T19:43:07.714Z,5.78
2019-03-31T19:48:07.987Z,5.54
2019-03-31T19:53:07.982Z,5.57
2019-03-31T19:58:07.880Z,5.6
2019-03-31T20:03:06.771Z,5.54
2019-03-31T20:07:07.373Z,5.45
2019-03-31T20:12:07.854Z,4.92
2019-03-31T20:17:08.042Z,4.75
2019-03-31T20:22:07.918Z,4.64
2019-03-31T20:27:07.875Z,4.42
2019-03-31T20:32:07.283Z,4.28
2019-03-31T20:37:07.245Z,4.18
2019-03-31T20:42:07.814Z,4.21
2019-03-31T20:46:06.492Z,4.27
2019-03-31T20:51:06.403Z,4.16
2019-03-31T20:56:06.290Z,4.08
2019-03-31T21:01:11.121Z,4.02
2019-03-31T21:06:08.369Z,3.71
2019-03-31T21:11:07.807Z,3.64
2019-03-31T21:16:07.568Z,3.65
2019-03-31T21:21:07.913Z,3.63
2019-03-31T21:25:07.051Z,3.77
2019-03-31T21:26:07.289Z,3.77
2019-03-31T21:30:08.596Z,3.88
2019-03-31T21:35:06.581Z,3.8
2019-03-31T21:40:06.907Z,3.72
2019-03-31T21:45:07.555Z,3.48
2019-03-31T21:50:06.814Z,3.38
2019-03-31T21:55:06.689Z,3.24
2019-03-31T21:59:06.436Z,3.2
2019-03-31T22:04:06.384Z,3.05
2019-03-31T22:09:06.633Z,2.89
2019-03-31T22:14:06.553Z,2.6
2019-03-31T22:19:06.814Z,2.43
2019-03-31T22:24:06.779Z,2.49
2019-03-31T22:29:06.645Z,2.29
2019-03-31T22:33:07.887Z,2.17
2019-03-31T22:38:07.719Z,2.15
2019-03-31T22:43:09.051Z,2.24
2019-03-31T22:48:07.419Z,2.13
2019-03-31T22:53:07.326Z,2.11
2019-03-31T22:58:08.192Z,2.15
2019-03-31T23:03:06.355Z,2.07
2019-03-31T23:07:08.117Z,1.99
2019-03-31T23:12:07.491Z,2.02
2019-03-31T23:17:07.971Z,1.78
2019-03-31T23:22:07.972Z,1.68
2019-03-31T23:27:07.879Z,1.69
2019-03-31T23:32:07.421Z,1.84
2019-03-31T23:37:07.357Z,1.91
2019-03-31T23:42:07.778Z,1.82
2019-03-31T23:46:07.606Z,1.5
2019-03-31T23:51:06.629Z,1.5
2019-03-31T23:56:06.523Z,1.4
